sensor_id;sensor_type;location;lat;lon;timestamp;P1;durP1;ratioP1;P2;durP2;ratioP2
55053;SDS011;40954;45.668;18.980;2022-12-10T00:01:11;21.27;;;9.20;;
55053;SDS011;40954;45.668;18.980;2022-12-10T00:03:38;18.20;;;9.20;;
55053;SDS011;40954;45.668;18.980;2022-12-10T00:06:05;15.98;;;9.52;;
55053;SDS011;40954;45.668;18.980;2022-12-10T00:08:32;24.60;;;10.25;;
55053;SDS011;40954;45.668;18.980;2022-12-10T00:10:58;22.40;;;8.77;;
55053;SDS011;40954;45.668;18.980;2022-12-10T00:13:25;27.92;;;8.02;;
55053;SDS011;40954;45.668;18.980;2022-12-10T00:15:51;18.95;;;9.02;;
55053;SDS011;40954;45.668;18.980;2022-12-10T00:18:17;22.58;;;9.20;;
55053;SDS011;40954;45.668;18.980;2022-12-10T00:20:43;23.23;;;9.20;;
55053;SDS011;40954;45.668;18.980;2022-12-10T00:23:09;25.02;;;8.85;;
55053;SDS011;40954;45.668;18.980;2022-12-10T00:25:35;24.15;;;10.63;;
55053;SDS011;40954;45.668;18.980;2022-12-10T00:28:01;24.55;;;9.45;;
55053;SDS011;40954;45.668;18.980;2022-12-10T00:30:27;20.95;;;9.25;;
55053;SDS011;40954;45.668;18.980;2022-12-10T00:32:53;22.13;;;9.52;;
55053;SDS011;40954;45.668;18.980;2022-12-10T00:35:19;17.05;;;8.30;;
55053;SDS011;40954;45.668;18.980;2022-12-10T00:37:45;21.83;;;8.85;;
55053;SDS011;40954;45.668;18.980;2022-12-10T00:40:11;28.75;;;9.75;;
55053;SDS011;40954;45.668;18.980;2022-12-10T00:42:38;22.95;;;9.10;;
55053;SDS011;40954;45.668;18.980;2022-12-10T00:45:04;19.67;;;7.95;;
55053;SDS011;40954;45.668;18.980;2022-12-10T00:47:30;22.35;;;8.57;;
55053;SDS011;40954;45.668;18.980;2022-12-10T00:49:56;18.27;;;8.00;;
55053;SDS011;40954;45.668;18.980;2022-12-10T00:52:22;19.52;;;8.57;;
55053;SDS011;40954;45.668;18.980;2022-12-10T00:54:49;19.70;;;7.63;;
55053;SDS011;40954;45.668;18.980;2022-12-10T00:57:15;19.80;;;8.23;;
55053;SDS011;40954;45.668;18.980;2022-12-10T00:59:41;15.15;;;7.38;;
55053;SDS011;40954;45.668;18.980;2022-12-10T01:02:07;21.45;;;8.20;;
55053;SDS011;40954;45.668;18.980;2022-12-10T01:04:33;15.00;;;8.55;;
55053;SDS011;40954;45.668;18.980;2022-12-10T01:06:59;24.90;;;8.63;;
55053;SDS011;40954;45.668;18.980;2022-12-10T01:09:26;22.65;;;7.80;;
55053;SDS011;40954;45.668;18.980;2022-12-10T01:11:53;19.58;;;9.20;;
55053;SDS011;40954;45.668;18.980;2022-12-10T01:14:28;22.42;;;8.32;;
55053;SDS011;40954;45.668;18.980;2022-12-10T01:16:55;28.25;;;8.90;;
55053;SDS011;40954;45.668;18.980;2022-12-10T01:19:22;23.50;;;9.57;;
55053;SDS011;40954;45.668;18.980;2022-12-10T01:21:51;28.55;;;13.18;;
55053;SDS011;40954;45.668;18.980;2022-12-10T01:24:18;30.33;;;13.07;;
55053;SDS011;40954;45.668;18.980;2022-12-10T01:26:44;32.42;;;11.00;;
55053;SDS011;40954;45.668;18.980;2022-12-10T01:29:13;23.20;;;9.60;;
55053;SDS011;40954;45.668;18.980;2022-12-10T01:31:39;22.08;;;8.70;;
55053;SDS011;40954;45.668;18.980;2022-12-10T01:34:06;19.08;;;7.63;;
55053;SDS011;40954;45.668;18.980;2022-12-10T01:36:33;25.15;;;10.80;;
55053;SDS011;40954;45.668;18.980;2022-12-10T01:39:03;24.38;;;9.98;;
55053;SDS011;40954;45.668;18.980;2022-12-10T01:41:31;29.02;;;12.70;;
55053;SDS011;40954;45.668;18.980;2022-12-10T01:46:40;20.25;;;11.45;;
55053;SDS011;40954;45.668;18.980;2022-12-10T01:49:07;30.23;;;12.48;;
55053;SDS011;40954;45.668;18.980;2022-12-10T01:51:35;26.35;;;11.32;;
55053;SDS011;40954;45.668;18.980;2022-12-10T01:54:02;25.25;;;10.50;;
55053;SDS011;40954;45.668;18.980;2022-12-10T01:56:28;25.35;;;11.40;;
55053;SDS011;40954;45.668;18.980;2022-12-10T01:58:55;25.55;;;12.93;;
55053;SDS011;40954;45.668;18.980;2022-12-10T02:07:05;21.20;;;11.35;;
55053;SDS011;40954;45.668;18.980;2022-12-10T02:14:28;27.05;;;11.80;;
55053;SDS011;40954;45.668;18.980;2022-12-10T02:16:59;26.25;;;11.95;;
55053;SDS011;40954;45.668;18.980;2022-12-10T02:21:59;19.75;;;11.25;;
55053;SDS011;40954;45.668;18.980;2022-12-10T02:24:27;23.80;;;10.82;;
55053;SDS011;40954;45.668;18.980;2022-12-10T02:29:38;20.98;;;9.18;;
55053;SDS011;40954;45.668;18.980;2022-12-10T02:32:08;19.55;;;10.02;;
55053;SDS011;40954;45.668;18.980;2022-12-10T02:34:44;16.70;;;10.02;;
55053;SDS011;40954;45.668;18.980;2022-12-10T02:37:17;30.17;;;15.93;;
55053;SDS011;40954;45.668;18.980;2022-12-10T02:39:45;26.05;;;14.38;;
55053;SDS011;40954;45.668;18.980;2022-12-10T02:42:13;23.60;;;14.85;;
55053;SDS011;40954;45.668;18.980;2022-12-10T02:44:41;24.15;;;13.52;;
55053;SDS011;40954;45.668;18.980;2022-12-10T02:47:07;27.20;;;14.00;;
55053;SDS011;40954;45.668;18.980;2022-12-10T02:49:35;28.20;;;15.30;;
55053;SDS011;40954;45.668;18.980;2022-12-10T02:52:06;24.92;;;13.27;;
55053;SDS011;40954;45.668;18.980;2022-12-10T02:57:00;20.88;;;11.25;;
55053;SDS011;40954;45.668;18.980;2022-12-10T02:59:29;19.20;;;10.82;;
55053;SDS011;40954;45.668;18.980;2022-12-10T03:02:06;23.95;;;10.73;;
55053;SDS011;40954;45.668;18.980;2022-12-10T03:04:46;20.23;;;10.30;;
55053;SDS011;40954;45.668;18.980;2022-12-10T03:07:22;20.77;;;10.00;;
55053;SDS011;40954;45.668;18.980;2022-12-10T03:09:55;16.85;;;9.10;;
55053;SDS011;40954;45.668;18.980;2022-12-10T03:12:29;16.50;;;8.85;;
55053;SDS011;40954;45.668;18.980;2022-12-10T03:14:58;15.48;;;8.85;;
55053;SDS011;40954;45.668;18.980;2022-12-10T03:17:24;18.23;;;8.43;;
55053;SDS011;40954;45.668;18.980;2022-12-10T03:19:51;16.75;;;7.93;;
55053;SDS011;40954;45.668;18.980;2022-12-10T03:22:18;13.90;;;8.00;;
55053;SDS011;40954;45.668;18.980;2022-12-10T03:24:45;17.63;;;8.85;;
55053;SDS011;40954;45.668;18.980;2022-12-10T03:27:13;18.75;;;9.07;;
55053;SDS011;40954;45.668;18.980;2022-12-10T03:29:46;17.23;;;10.43;;
55053;SDS011;40954;45.668;18.980;2022-12-10T03:32:13;17.25;;;10.23;;
55053;SDS011;40954;45.668;18.980;2022-12-10T03:34:39;18.90;;;9.68;;
55053;SDS011;40954;45.668;18.980;2022-12-10T03:37:06;22.35;;;10.15;;
55053;SDS011;40954;45.668;18.980;2022-12-10T03:39:32;13.13;;;9.70;;
55053;SDS011;40954;45.668;18.980;2022-12-10T03:41:58;13.70;;;9.88;;
55053;SDS011;40954;45.668;18.980;2022-12-10T03:44:28;23.33;;;12.50;;
55053;SDS011;40954;45.668;18.980;2022-12-10T03:46:55;20.83;;;10.98;;
55053;SDS011;40954;45.668;18.980;2022-12-10T03:49:21;20.65;;;9.02;;
55053;SDS011;40954;45.668;18.980;2022-12-10T03:51:47;15.82;;;8.55;;
55053;SDS011;40954;45.668;18.980;2022-12-10T03:54:13;21.45;;;10.10;;
55053;SDS011;40954;45.668;18.980;2022-12-10T03:56:39;20.20;;;9.55;;
55053;SDS011;40954;45.668;18.980;2022-12-10T03:59:05;20.30;;;9.18;;
55053;SDS011;40954;45.668;18.980;2022-12-10T04:01:31;17.88;;;9.38;;
55053;SDS011;40954;45.668;18.980;2022-12-10T04:03:57;15.82;;;9.70;;
55053;SDS011;40954;45.668;18.980;2022-12-10T04:06:23;16.02;;;9.50;;
55053;SDS011;40954;45.668;18.980;2022-12-10T04:08:50;23.20;;;12.95;;
55053;SDS011;40954;45.668;18.980;2022-12-10T04:11:17;21.70;;;13.18;;
55053;SDS011;40954;45.668;18.980;2022-12-10T04:13:43;21.90;;;14.23;;
55053;SDS011;40954;45.668;18.980;2022-12-10T04:16:28;21.55;;;12.85;;
55053;SDS011;40954;45.668;18.980;2022-12-10T04:18:58;22.83;;;13.57;;
55053;SDS011;40954;45.668;18.980;2022-12-10T04:21:25;26.35;;;14.30;;
55053;SDS011;40954;45.668;18.980;2022-12-10T04:24:10;37.53;;;25.60;;
55053;SDS011;40954;45.668;18.980;2022-12-10T04:26:55;43.17;;;26.85;;
55053;SDS011;40954;45.668;18.980;2022-12-10T04:29:26;47.13;;;28.88;;
55053;SDS011;40954;45.668;18.980;2022-12-10T04:31:53;40.33;;;26.83;;
55053;SDS011;40954;45.668;18.980;2022-12-10T04:34:19;37.45;;;25.55;;
55053;SDS011;40954;45.668;18.980;2022-12-10T04:36:45;29.70;;;19.85;;
55053;SDS011;40954;45.668;18.980;2022-12-10T04:39:12;36.55;;;23.83;;
55053;SDS011;40954;45.668;18.980;2022-12-10T04:41:39;32.75;;;22.52;;
55053;SDS011;40954;45.668;18.980;2022-12-10T04:44:05;30.17;;;21.42;;
55053;SDS011;40954;45.668;18.980;2022-12-10T04:46:31;28.98;;;20.40;;
55053;SDS011;40954;45.668;18.980;2022-12-10T04:48:57;31.65;;;19.15;;
55053;SDS011;40954;45.668;18.980;2022-12-10T04:51:23;30.38;;;21.38;;
55053;SDS011;40954;45.668;18.980;2022-12-10T04:53:49;27.75;;;18.95;;
55053;SDS011;40954;45.668;18.980;2022-12-10T04:56:15;31.85;;;19.63;;
55053;SDS011;40954;45.668;18.980;2022-12-10T04:58:41;31.80;;;20.25;;
55053;SDS011;40954;45.668;18.980;2022-12-10T05:01:08;35.47;;;25.65;;
55053;SDS011;40954;45.668;18.980;2022-12-10T05:03:35;37.70;;;25.50;;
55053;SDS011;40954;45.668;18.980;2022-12-10T05:06:02;40.92;;;27.38;;
55053;SDS011;40954;45.668;18.980;2022-12-10T05:08:28;43.42;;;31.77;;
55053;SDS011;40954;45.668;18.980;2022-12-10T05:10:55;35.70;;;25.63;;
55053;SDS011;40954;45.668;18.980;2022-12-10T05:13:21;33.47;;;24.85;;
55053;SDS011;40954;45.668;18.980;2022-12-10T05:15:47;32.97;;;23.10;;
55053;SDS011;40954;45.668;18.980;2022-12-10T05:18:13;31.48;;;20.67;;
55053;SDS011;40954;45.668;18.980;2022-12-10T05:20:39;43.25;;;27.52;;
55053;SDS011;40954;45.668;18.980;2022-12-10T05:23:05;38.70;;;26.33;;
55053;SDS011;40954;45.668;18.980;2022-12-10T05:25:56;42.95;;;27.38;;
55053;SDS011;40954;45.668;18.980;2022-12-10T05:28:23;39.65;;;25.25;;
55053;SDS011;40954;45.668;18.980;2022-12-10T05:30:49;34.15;;;24.60;;
55053;SDS011;40954;45.668;18.980;2022-12-10T05:33:15;28.38;;;21.33;;
55053;SDS011;40954;45.668;18.980;2022-12-10T05:35:41;29.85;;;22.38;;
55053;SDS011;40954;45.668;18.980;2022-12-10T05:38:07;41.28;;;25.17;;
55053;SDS011;40954;45.668;18.980;2022-12-10T05:40:35;44.22;;;25.02;;
55053;SDS011;40954;45.668;18.980;2022-12-10T05:43:01;50.17;;;33.42;;
55053;SDS011;40954;45.668;18.980;2022-12-10T05:45:27;56.65;;;33.92;;
55053;SDS011;40954;45.668;18.980;2022-12-10T05:47:53;60.28;;;39.72;;
55053;SDS011;40954;45.668;18.980;2022-12-10T05:50:19;69.78;;;46.63;;
55053;SDS011;40954;45.668;18.980;2022-12-10T05:52:45;60.95;;;42.10;;
55053;SDS011;40954;45.668;18.980;2022-12-10T05:55:11;79.90;;;48.92;;
55053;SDS011;40954;45.668;18.980;2022-12-10T05:57:37;79.13;;;51.65;;
55053;SDS011;40954;45.668;18.980;2022-12-10T06:00:04;78.57;;;51.75;;
55053;SDS011;40954;45.668;18.980;2022-12-10T06:02:34;64.47;;;45.17;;
55053;SDS011;40954;45.668;18.980;2022-12-10T06:05:00;64.97;;;44.00;;
55053;SDS011;40954;45.668;18.980;2022-12-10T06:07:26;58.65;;;40.05;;
55053;SDS011;40954;45.668;18.980;2022-12-10T06:09:52;55.25;;;39.17;;
55053;SDS011;40954;45.668;18.980;2022-12-10T06:12:18;54.25;;;36.15;;
55053;SDS011;40954;45.668;18.980;2022-12-10T06:14:44;60.80;;;41.22;;
55053;SDS011;40954;45.668;18.980;2022-12-10T06:17:11;113.78;;;61.83;;
55053;SDS011;40954;45.668;18.980;2022-12-10T06:19:37;101.05;;;59.28;;
55053;SDS011;40954;45.668;18.980;2022-12-10T06:22:03;88.88;;;52.72;;
55053;SDS011;40954;45.668;18.980;2022-12-10T06:24:30;88.00;;;48.85;;
55053;SDS011;40954;45.668;18.980;2022-12-10T06:26:56;82.28;;;43.08;;
55053;SDS011;40954;45.668;18.980;2022-12-10T06:29:22;65.32;;;39.67;;
55053;SDS011;40954;45.668;18.980;2022-12-10T06:31:48;50.85;;;32.35;;
55053;SDS011;40954;45.668;18.980;2022-12-10T06:34:14;53.22;;;34.08;;
55053;SDS011;40954;45.668;18.980;2022-12-10T06:36:40;52.10;;;33.83;;
55053;SDS011;40954;45.668;18.980;2022-12-10T06:39:06;65.78;;;41.20;;
55053;SDS011;40954;45.668;18.980;2022-12-10T06:41:33;59.75;;;36.83;;
55053;SDS011;40954;45.668;18.980;2022-12-10T06:43:59;62.60;;;39.38;;
55053;SDS011;40954;45.668;18.980;2022-12-10T06:46:25;54.53;;;37.35;;
55053;SDS011;40954;45.668;18.980;2022-12-10T06:48:53;66.82;;;42.25;;
55053;SDS011;40954;45.668;18.980;2022-12-10T06:51:19;69.78;;;44.28;;
55053;SDS011;40954;45.668;18.980;2022-12-10T06:53:45;79.70;;;49.20;;
55053;SDS011;40954;45.668;18.980;2022-12-10T06:56:12;68.40;;;43.63;;
55053;SDS011;40954;45.668;18.980;2022-12-10T06:58:39;61.85;;;41.70;;
55053;SDS011;40954;45.668;18.980;2022-12-10T07:01:08;67.50;;;43.83;;
55053;SDS011;40954;45.668;18.980;2022-12-10T07:03:35;78.60;;;48.13;;
55053;SDS011;40954;45.668;18.980;2022-12-10T07:06:01;59.67;;;41.60;;
55053;SDS011;40954;45.668;18.980;2022-12-10T07:08:28;57.45;;;42.67;;
55053;SDS011;40954;45.668;18.980;2022-12-10T07:10:54;54.83;;;39.97;;
55053;SDS011;40954;45.668;18.980;2022-12-10T07:13:20;35.15;;;24.90;;
55053;SDS011;40954;45.668;18.980;2022-12-10T07:15:46;24.50;;;16.75;;
55053;SDS011;40954;45.668;18.980;2022-12-10T07:18:12;21.10;;;15.38;;
55053;SDS011;40954;45.668;18.980;2022-12-10T07:20:38;20.42;;;15.73;;
55053;SDS011;40954;45.668;18.980;2022-12-10T07:23:04;24.13;;;16.08;;
55053;SDS011;40954;45.668;18.980;2022-12-10T07:25:31;29.88;;;18.38;;
55053;SDS011;40954;45.668;18.980;2022-12-10T07:27:57;26.42;;;18.00;;
55053;SDS011;40954;45.668;18.980;2022-12-10T07:30:23;25.58;;;18.10;;
55053;SDS011;40954;45.668;18.980;2022-12-10T07:32:49;21.88;;;17.92;;
55053;SDS011;40954;45.668;18.980;2022-12-10T07:35:15;24.88;;;16.00;;
55053;SDS011;40954;45.668;18.980;2022-12-10T07:37:41;18.42;;;14.27;;
55053;SDS011;40954;45.668;18.980;2022-12-10T07:40:08;19.60;;;14.63;;
55053;SDS011;40954;45.668;18.980;2022-12-10T07:42:34;17.48;;;13.65;;
55053;SDS011;40954;45.668;18.980;2022-12-10T07:45:00;18.83;;;12.10;;
55053;SDS011;40954;45.668;18.980;2022-12-10T07:47:26;18.30;;;12.05;;
55053;SDS011;40954;45.668;18.980;2022-12-10T07:49:52;17.25;;;12.32;;
55053;SDS011;40954;45.668;18.980;2022-12-10T07:52:19;21.00;;;14.68;;
55053;SDS011;40954;45.668;18.980;2022-12-10T07:54:45;18.08;;;13.80;;
55053;SDS011;40954;45.668;18.980;2022-12-10T07:57:11;18.40;;;13.50;;
55053;SDS011;40954;45.668;18.980;2022-12-10T07:59:37;19.17;;;12.98;;
55053;SDS011;40954;45.668;18.980;2022-12-10T08:02:03;19.83;;;13.00;;
55053;SDS011;40954;45.668;18.980;2022-12-10T08:04:41;20.08;;;14.00;;
55053;SDS011;40954;45.668;18.980;2022-12-10T08:07:12;24.90;;;15.18;;
55053;SDS011;40954;45.668;18.980;2022-12-10T08:09:38;23.75;;;14.65;;
55053;SDS011;40954;45.668;18.980;2022-12-10T08:12:04;20.10;;;13.75;;
55053;SDS011;40954;45.668;18.980;2022-12-10T08:14:30;18.80;;;13.07;;
55053;SDS011;40954;45.668;18.980;2022-12-10T08:16:56;20.13;;;13.40;;
55053;SDS011;40954;45.668;18.980;2022-12-10T08:19:22;18.23;;;13.20;;
55053;SDS011;40954;45.668;18.980;2022-12-10T08:21:48;25.02;;;16.05;;
55053;SDS011;40954;45.668;18.980;2022-12-10T08:24:14;28.10;;;20.30;;
55053;SDS011;40954;45.668;18.980;2022-12-10T08:26:41;23.58;;;17.73;;
55053;SDS011;40954;45.668;18.980;2022-12-10T08:29:07;22.35;;;17.52;;
55053;SDS011;40954;45.668;18.980;2022-12-10T08:31:33;24.38;;;17.67;;
55053;SDS011;40954;45.668;18.980;2022-12-10T08:33:59;25.23;;;16.85;;
55053;SDS011;40954;45.668;18.980;2022-12-10T08:36:25;22.20;;;15.63;;
55053;SDS011;40954;45.668;18.980;2022-12-10T08:38:51;21.83;;;17.92;;
55053;SDS011;40954;45.668;18.980;2022-12-10T08:41:18;22.48;;;18.40;;
55053;SDS011;40954;45.668;18.980;2022-12-10T08:43:44;23.40;;;18.00;;
55053;SDS011;40954;45.668;18.980;2022-12-10T08:46:11;26.42;;;17.50;;
55053;SDS011;40954;45.668;18.980;2022-12-10T08:48:38;20.30;;;14.75;;
55053;SDS011;40954;45.668;18.980;2022-12-10T08:51:04;20.90;;;14.80;;
55053;SDS011;40954;45.668;18.980;2022-12-10T08:53:31;23.58;;;15.85;;
55053;SDS011;40954;45.668;18.980;2022-12-10T08:55:57;21.30;;;15.88;;
55053;SDS011;40954;45.668;18.980;2022-12-10T08:58:23;24.55;;;17.00;;
55053;SDS011;40954;45.668;18.980;2022-12-10T09:00:49;23.48;;;16.13;;
55053;SDS011;40954;45.668;18.980;2022-12-10T09:03:15;19.05;;;13.02;;
55053;SDS011;40954;45.668;18.980;2022-12-10T09:05:42;20.67;;;13.27;;
55053;SDS011;40954;45.668;18.980;2022-12-10T09:08:08;20.38;;;14.48;;
55053;SDS011;40954;45.668;18.980;2022-12-10T09:10:35;22.55;;;15.73;;
55053;SDS011;40954;45.668;18.980;2022-12-10T09:13:01;15.00;;;12.65;;
55053;SDS011;40954;45.668;18.980;2022-12-10T09:15:28;18.50;;;13.68;;
55053;SDS011;40954;45.668;18.980;2022-12-10T09:17:54;22.35;;;15.02;;
55053;SDS011;40954;45.668;18.980;2022-12-10T09:20:20;21.20;;;15.82;;
55053;SDS011;40954;45.668;18.980;2022-12-10T09:22:46;22.65;;;13.75;;
55053;SDS011;40954;45.668;18.980;2022-12-10T09:25:12;20.35;;;15.45;;
55053;SDS011;40954;45.668;18.980;2022-12-10T09:27:40;17.05;;;13.43;;
55053;SDS011;40954;45.668;18.980;2022-12-10T09:30:06;17.45;;;12.60;;
55053;SDS011;40954;45.668;18.980;2022-12-10T09:32:33;15.48;;;12.70;;
55053;SDS011;40954;45.668;18.980;2022-12-10T09:34:59;15.73;;;11.98;;
55053;SDS011;40954;45.668;18.980;2022-12-10T09:37:25;13.95;;;12.10;;
55053;SDS011;40954;45.668;18.980;2022-12-10T09:39:51;16.63;;;12.18;;
55053;SDS011;40954;45.668;18.980;2022-12-10T09:47:26;19.83;;;16.48;;
55053;SDS011;40954;45.668;18.980;2022-12-10T09:52:22;19.05;;;16.58;;
55053;SDS011;40954;45.668;18.980;2022-12-10T09:54:59;18.15;;;15.38;;
55053;SDS011;40954;45.668;18.980;2022-12-10T09:57:36;22.50;;;17.67;;
55053;SDS011;40954;45.668;18.980;2022-12-10T10:00:29;18.00;;;16.10;;
55053;SDS011;40954;45.668;18.980;2022-12-10T10:02:50;17.00;;;15.07;;
55053;SDS011;40954;45.668;18.980;2022-12-10T10:05:24;15.52;;;13.65;;
55053;SDS011;40954;45.668;18.980;2022-12-10T10:07:55;17.92;;;15.15;;
55053;SDS011;40954;45.668;18.980;2022-12-10T10:10:29;19.92;;;17.27;;
55053;SDS011;40954;45.668;18.980;2022-12-10T10:12:57;25.50;;;20.02;;
55053;SDS011;40954;45.668;18.980;2022-12-10T10:15:26;28.85;;;25.75;;
55053;SDS011;40954;45.668;18.980;2022-12-10T10:17:54;18.27;;;16.13;;
55053;SDS011;40954;45.668;18.980;2022-12-10T10:20:22;20.13;;;16.90;;
55053;SDS011;40954;45.668;18.980;2022-12-10T10:22:48;19.02;;;16.92;;
55053;SDS011;40954;45.668;18.980;2022-12-10T10:25:15;15.32;;;13.70;;
55053;SDS011;40954;45.668;18.980;2022-12-10T10:27:41;18.63;;;15.60;;
55053;SDS011;40954;45.668;18.980;2022-12-10T10:30:13;16.83;;;13.10;;
55053;SDS011;40954;45.668;18.980;2022-12-10T10:35:19;20.13;;;15.70;;
55053;SDS011;40954;45.668;18.980;2022-12-10T10:37:46;18.05;;;13.73;;
55053;SDS011;40954;45.668;18.980;2022-12-10T10:40:22;16.00;;;14.25;;
55053;SDS011;40954;45.668;18.980;2022-12-10T10:42:51;20.83;;;15.80;;
55053;SDS011;40954;45.668;18.980;2022-12-10T10:50:43;17.15;;;14.70;;
55053;SDS011;40954;45.668;18.980;2022-12-10T10:53:26;15.68;;;13.98;;
55053;SDS011;40954;45.668;18.980;2022-12-10T10:55:57;14.25;;;12.50;;
55053;SDS011;40954;45.668;18.980;2022-12-10T10:58:23;13.93;;;11.75;;
55053;SDS011;40954;45.668;18.980;2022-12-10T11:03:26;16.73;;;12.35;;
55053;SDS011;40954;45.668;18.980;2022-12-10T11:05:53;13.85;;;11.52;;
55053;SDS011;40954;45.668;18.980;2022-12-10T11:08:19;14.63;;;11.45;;
55053;SDS011;40954;45.668;18.980;2022-12-10T11:10:55;13.02;;;10.98;;
55053;SDS011;40954;45.668;18.980;2022-12-10T11:13:27;14.35;;;11.68;;
55053;SDS011;40954;45.668;18.980;2022-12-10T11:16:10;11.15;;;10.00;;
55053;SDS011;40954;45.668;18.980;2022-12-10T11:18:37;12.30;;;10.57;;
55053;SDS011;40954;45.668;18.980;2022-12-10T11:23:31;12.23;;;10.05;;
55053;SDS011;40954;45.668;18.980;2022-12-10T11:28:55;12.05;;;10.43;;
55053;SDS011;40954;45.668;18.980;2022-12-10T11:49:06;12.27;;;10.32;;
55053;SDS011;40954;45.668;18.980;2022-12-10T11:56:49;13.10;;;10.60;;
55053;SDS011;40954;45.668;18.980;2022-12-10T12:01:59;14.13;;;12.00;;
55053;SDS011;40954;45.668;18.980;2022-12-10T12:09:29;14.23;;;11.30;;
55053;SDS011;40954;45.668;18.980;2022-12-10T12:12:10;16.20;;;11.85;;
55053;SDS011;40954;45.668;18.980;2022-12-10T12:15:01;14.52;;;11.32;;
55053;SDS011;40954;45.668;18.980;2022-12-10T12:17:26;14.73;;;10.45;;
55053;SDS011;40954;45.668;18.980;2022-12-10T12:20:04;15.25;;;12.52;;
55053;SDS011;40954;45.668;18.980;2022-12-10T12:22:33;13.05;;;10.43;;
55053;SDS011;40954;45.668;18.980;2022-12-10T12:25:07;13.75;;;10.90;;
55053;SDS011;40954;45.668;18.980;2022-12-10T12:27:38;15.20;;;11.18;;
55053;SDS011;40954;45.668;18.980;2022-12-10T12:30:13;16.08;;;11.82;;
55053;SDS011;40954;45.668;18.980;2022-12-10T12:37:40;18.88;;;14.63;;
55053;SDS011;40954;45.668;18.980;2022-12-10T12:40:19;20.70;;;16.27;;
55053;SDS011;40954;45.668;18.980;2022-12-10T12:42:50;17.42;;;12.68;;
55053;SDS011;40954;45.668;18.980;2022-12-10T12:45:22;16.65;;;13.05;;
55053;SDS011;40954;45.668;18.980;2022-12-10T12:47:53;17.83;;;12.38;;
55053;SDS011;40954;45.668;18.980;2022-12-10T12:53:08;18.42;;;13.13;;
55053;SDS011;40954;45.668;18.980;2022-12-10T12:55:43;18.90;;;13.25;;
55053;SDS011;40954;45.668;18.980;2022-12-10T12:58:12;14.68;;;11.88;;
55053;SDS011;40954;45.668;18.980;2022-12-10T13:00:42;18.10;;;12.75;;
55053;SDS011;40954;45.668;18.980;2022-12-10T13:06:12;18.77;;;12.98;;
55053;SDS011;40954;45.668;18.980;2022-12-10T13:11:28;18.50;;;13.85;;
55053;SDS011;40954;45.668;18.980;2022-12-10T13:33:13;12.55;;;9.80;;
55053;SDS011;40954;45.668;18.980;2022-12-10T13:35:57;12.25;;;8.95;;
55053;SDS011;40954;45.668;18.980;2022-12-10T13:38:24;11.38;;;7.90;;
55053;SDS011;40954;45.668;18.980;2022-12-10T13:41:03;10.35;;;8.20;;
55053;SDS011;40954;45.668;18.980;2022-12-10T13:43:56;10.57;;;7.25;;
55053;SDS011;40954;45.668;18.980;2022-12-10T13:46:53;14.50;;;11.48;;
55053;SDS011;40954;45.668;18.980;2022-12-10T13:49:29;11.27;;;9.02;;
55053;SDS011;40954;45.668;18.980;2022-12-10T14:07:17;8.95;;;7.40;;
55053;SDS011;40954;45.668;18.980;2022-12-10T14:09:48;6.18;;;5.57;;
55053;SDS011;40954;45.668;18.980;2022-12-10T14:12:17;9.65;;;6.45;;
55053;SDS011;40954;45.668;18.980;2022-12-10T14:14:46;9.50;;;7.88;;
55053;SDS011;40954;45.668;18.980;2022-12-10T14:17:17;8.50;;;6.57;;
55053;SDS011;40954;45.668;18.980;2022-12-10T14:19:48;11.55;;;8.43;;
55053;SDS011;40954;45.668;18.980;2022-12-10T14:22:19;10.88;;;9.55;;
55053;SDS011;40954;45.668;18.980;2022-12-10T14:24:46;12.27;;;9.40;;
55053;SDS011;40954;45.668;18.980;2022-12-10T14:27:14;9.52;;;8.50;;
55053;SDS011;40954;45.668;18.980;2022-12-10T14:29:44;11.07;;;9.10;;
55053;SDS011;40954;45.668;18.980;2022-12-10T14:32:14;10.95;;;9.73;;
55053;SDS011;40954;45.668;18.980;2022-12-10T14:34:41;10.77;;;9.18;;
55053;SDS011;40954;45.668;18.980;2022-12-10T14:37:09;12.52;;;9.80;;
55053;SDS011;40954;45.668;18.980;2022-12-10T14:39:37;13.05;;;9.23;;
55053;SDS011;40954;45.668;18.980;2022-12-10T14:42:04;13.02;;;10.85;;
55053;SDS011;40954;45.668;18.980;2022-12-10T14:44:31;16.50;;;11.18;;
55053;SDS011;40954;45.668;18.980;2022-12-10T14:47:10;13.02;;;9.52;;
55053;SDS011;40954;45.668;18.980;2022-12-10T14:49:38;13.82;;;9.23;;
55053;SDS011;40954;45.668;18.980;2022-12-10T14:52:08;12.93;;;9.38;;
55053;SDS011;40954;45.668;18.980;2022-12-10T14:54:36;23.97;;;13.10;;
55053;SDS011;40954;45.668;18.980;2022-12-10T14:57:06;16.23;;;10.25;;
55053;SDS011;40954;45.668;18.980;2022-12-10T14:59:35;10.27;;;8.40;;
55053;SDS011;40954;45.668;18.980;2022-12-10T15:02:04;10.85;;;8.00;;
55053;SDS011;40954;45.668;18.980;2022-12-10T15:04:43;10.90;;;8.40;;
55053;SDS011;40954;45.668;18.980;2022-12-10T15:07:14;11.40;;;9.48;;
55053;SDS011;40954;45.668;18.980;2022-12-10T15:09:43;14.88;;;11.00;;
55053;SDS011;40954;45.668;18.980;2022-12-10T15:12:16;13.13;;;9.82;;
55053;SDS011;40954;45.668;18.980;2022-12-10T15:14:44;15.07;;;11.00;;
55053;SDS011;40954;45.668;18.980;2022-12-10T15:19:55;12.90;;;10.55;;
55053;SDS011;40954;45.668;18.980;2022-12-10T15:22:29;20.80;;;15.80;;
55053;SDS011;40954;45.668;18.980;2022-12-10T15:24:55;18.85;;;12.90;;
55053;SDS011;40954;45.668;18.980;2022-12-10T15:27:22;23.88;;;16.80;;
55053;SDS011;40954;45.668;18.980;2022-12-10T15:29:49;14.93;;;12.45;;
55053;SDS011;40954;45.668;18.980;2022-12-10T15:32:19;16.58;;;12.32;;
55053;SDS011;40954;45.668;18.980;2022-12-10T15:34:46;17.55;;;12.63;;
55053;SDS011;40954;45.668;18.980;2022-12-10T15:37:18;15.63;;;12.23;;
55053;SDS011;40954;45.668;18.980;2022-12-10T15:39:49;17.57;;;13.33;;
55053;SDS011;40954;45.668;18.980;2022-12-10T15:42:36;18.83;;;14.63;;
55053;SDS011;40954;45.668;18.980;2022-12-10T15:45:49;15.77;;;12.80;;
55053;SDS011;40954;45.668;18.980;2022-12-10T15:47:54;14.85;;;11.65;;
55053;SDS011;40954;45.668;18.980;2022-12-10T15:50:22;14.52;;;12.35;;
55053;SDS011;40954;45.668;18.980;2022-12-10T15:52:48;14.85;;;12.23;;
55053;SDS011;40954;45.668;18.980;2022-12-10T15:55:16;14.55;;;12.32;;
55053;SDS011;40954;45.668;18.980;2022-12-10T15:57:43;15.40;;;12.27;;
55053;SDS011;40954;45.668;18.980;2022-12-10T16:00:15;14.95;;;12.40;;
55053;SDS011;40954;45.668;18.980;2022-12-10T16:02:55;15.38;;;12.43;;
55053;SDS011;40954;45.668;18.980;2022-12-10T16:05:27;14.40;;;11.38;;
55053;SDS011;40954;45.668;18.980;2022-12-10T16:08:22;16.70;;;13.05;;
55053;SDS011;40954;45.668;18.980;2022-12-10T16:10:46;17.92;;;13.57;;
55053;SDS011;40954;45.668;18.980;2022-12-10T16:13:16;16.00;;;12.40;;
55053;SDS011;40954;45.668;18.980;2022-12-10T16:15:43;18.23;;;13.75;;
55053;SDS011;40954;45.668;18.980;2022-12-10T16:18:10;19.90;;;14.13;;
55053;SDS011;40954;45.668;18.980;2022-12-10T16:20:36;17.98;;;13.70;;
55053;SDS011;40954;45.668;18.980;2022-12-10T16:23:03;20.38;;;15.50;;
55053;SDS011;40954;45.668;18.980;2022-12-10T16:25:31;19.35;;;14.55;;